createdAt,value
2022-10-04T00:08:56.384Z,0.00
2022-10-04T00:18:57.122Z,0.00
2022-10-04T00:28:56.793Z,0.00
2022-10-04T00:38:56.998Z,0.00
2022-10-04T00:48:58.674Z,0.00
2022-10-04T00:58:57.331Z,0.00
2022-10-04T01:08:58.786Z,0.00
2022-10-04T01:18:57.805Z,0.00
2022-10-04T01:29:00.708Z,0.00
2022-10-04T01:38:58.150Z,0.00
2022-10-04T01:48:58.694Z,0.00
2022-10-04T01:58:58.539Z,0.00
2022-10-04T02:08:58.841Z,0.00
2022-10-04T02:18:58.887Z,0.00
2022-10-04T02:28:59.192Z,0.00
2022-10-04T02:38:59.224Z,0.00
2022-10-04T02:48:59.532Z,0.00
2022-10-04T02:58:59.617Z,0.00
2022-10-04T03:08:59.889Z,0.00
2022-10-04T03:18:59.917Z,0.00
2022-10-04T03:29:00.231Z,0.00
2022-10-04T03:39:00.280Z,0.00
2022-10-04T03:49:00.597Z,0.00
2022-10-04T03:59:00.633Z,0.00
2022-10-04T04:09:00.939Z,0.00
2022-10-04T04:19:00.968Z,0.00
2022-10-04T04:29:01.299Z,0.00
2022-10-04T04:39:01.316Z,0.00
2022-10-04T04:49:01.664Z,0.00
2022-10-04T04:59:01.703Z,0.00
2022-10-04T05:09:02.031Z,0.00
2022-10-04T05:19:02.071Z,0.00
2022-10-04T05:29:02.329Z,0.00
2022-10-04T05:39:02.561Z,0.00
2022-10-04T05:49:02.885Z,0.00
2022-10-04T05:59:02.903Z,5.62
2022-10-04T06:09:03.246Z,5.62
2022-10-04T06:19:03.272Z,5.62
2022-10-04T06:29:03.587Z,5.62
2022-10-04T06:39:04.570Z,11.25
2022-10-04T06:49:03.939Z,16.88
2022-10-04T06:59:03.973Z,16.88
2022-10-04T07:09:04.293Z,11.25
2022-10-04T07:19:04.381Z,16.88
2022-10-04T07:29:04.541Z,28.12
2022-10-04T07:39:04.558Z,45.00
2022-10-04T07:49:04.893Z,45.00
2022-10-04T07:59:04.915Z,39.38
2022-10-04T08:09:05.235Z,50.62
2022-10-04T08:19:05.273Z,95.62
2022-10-04T08:29:05.586Z,73.12
2022-10-04T08:39:05.628Z,67.50
2022-10-04T08:49:05.931Z,84.38
2022-10-04T08:59:05.981Z,90.00
2022-10-04T09:09:06.281Z,61.88
2022-10-04T09:19:06.370Z,50.62
2022-10-04T09:29:06.426Z,84.38
2022-10-04T09:39:28.834Z,73.12
2022-10-04T09:49:07.918Z,112.50
2022-10-04T09:59:07.273Z,135.00
2022-10-04T10:09:07.292Z,112.50
2022-10-04T10:19:07.617Z,78.75
2022-10-04T10:29:07.644Z,67.50
2022-10-04T10:39:07.964Z,90.00
2022-10-04T10:49:07.995Z,135.00
2022-10-04T10:59:08.317Z,174.38
2022-10-04T11:09:08.353Z,146.25
2022-10-04T11:19:08.662Z,163.12
2022-10-04T11:29:08.685Z,168.75
2022-10-04T11:39:09.013Z,151.88
2022-10-04T11:49:09.034Z,168.75
2022-10-04T11:59:09.364Z,180.00
2022-10-04T12:09:09.395Z,180.00
2022-10-04T12:19:09.730Z,185.62
2022-10-04T12:29:09.747Z,185.62
2022-10-04T12:39:10.069Z,180.00
2022-10-04T12:49:10.100Z,180.00
2022-10-04T12:59:10.517Z,163.12
2022-10-04T13:09:10.569Z,174.38
2022-10-04T13:19:10.860Z,174.38
2022-10-04T13:29:10.879Z,174.38
2022-10-04T13:39:11.224Z,135.00
2022-10-04T13:49:11.241Z,168.75
2022-10-04T13:59:11.574Z,56.25
2022-10-04T14:09:11.600Z,157.50
2022-10-04T14:19:12.026Z,151.88
2022-10-04T14:29:12.045Z,140.62
2022-10-04T14:39:12.285Z,135.00
2022-10-04T14:49:12.522Z,129.38
2022-10-04T14:59:12.808Z,118.12
2022-10-04T15:09:12.836Z,106.88
2022-10-04T15:19:13.159Z,90.00
2022-10-04T15:29:13.186Z,78.75
2022-10-04T15:39:13.511Z,11.25
2022-10-04T15:49:13.533Z,5.62
2022-10-04T15:59:13.863Z,5.62
2022-10-04T16:09:13.895Z,5.62
2022-10-04T16:19:14.205Z,5.62
2022-10-04T16:29:14.233Z,0.00
2022-10-04T16:39:14.554Z,0.00
2022-10-04T16:49:14.582Z,0.00
2022-10-04T16:59:15.026Z,0.00
2022-10-04T17:09:15.064Z,0.00
2022-10-04T17:19:15.367Z,0.00
2022-10-04T17:29:15.412Z,0.00
2022-10-04T17:39:15.722Z,0.00
2022-10-04T17:49:15.781Z,0.00
2022-10-04T17:59:15.861Z,0.00
2022-10-04T18:09:19.397Z,0.00
2022-10-04T18:19:16.241Z,0.00
2022-10-04T18:29:16.800Z,0.00
2022-10-04T18:39:16.696Z,0.00
2022-10-04T18:49:17.267Z,0.00
2022-10-04T18:59:17.364Z,0.00
2022-10-04T19:09:17.490Z,0.00
2022-10-04T19:19:17.611Z,0.00
2022-10-04T19:29:17.794Z,0.00
2022-10-04T19:39:17.985Z,0.00
2022-10-04T19:49:17.983Z,0.00
2022-10-04T19:59:18.284Z,0.00
2022-10-04T20:09:18.379Z,0.00
2022-10-04T20:19:18.469Z,0.00
2022-10-04T20:29:18.791Z,0.00
2022-10-04T20:39:18.828Z,0.00
2022-10-04T20:49:19.138Z,0.00
2022-10-04T20:59:19.187Z,0.00
2022-10-04T21:09:19.484Z,0.00
2022-10-04T21:19:19.512Z,0.00
2022-10-04T21:29:19.835Z,0.00
2022-10-04T21:39:19.860Z,0.00
2022-10-04T21:49:20.200Z,0.00
2022-10-04T21:59:20.249Z,0.00
2022-10-04T22:09:20.555Z,0.00
2022-10-04T22:19:20.586Z,0.00
2022-10-04T22:29:20.902Z,0.00
2022-10-04T22:39:20.928Z,0.00
2022-10-04T22:49:21.352Z,0.00
2022-10-04T22:59:21.380Z,0.00
2022-10-04T23:09:21.691Z,0.00
2022-10-04T23:19:21.718Z,0.00
2022-10-04T23:29:22.039Z,0.00
2022-10-04T23:39:22.079Z,0.00
2022-10-04T23:49:22.400Z,0.00
2022-10-04T23:59:22.440Z,0.00
